Time;durP1;ratioP1;P1;durP2;ratioP2;P2;SDS_P1;SDS_P2;PMS_P1;PMS_P2;Temp;Humidity;BMP_temperature;BMP_pressure;BME280_temperature;BME280_humidity;BME280_pressure;Samples;Min_cycle;Max_cycle;Signal;HPM_P1;HPM_P2
2021/12/27 00:02:16;;;;;;;14.20;5.10;;;;;;;;;;6207718;23;20063;-44
2021/12/27 00:04:41;;;;;;;10.10;4.32;;;;;;;;;;6207472;23;20005;-45
2021/12/27 00:07:06;;;;;;;19.27;4.93;;;;;;;;;;6206690;23;20016;-44
2021/12/27 00:09:32;;;;;;;14.27;5.30;;;;;;;;;;6207249;23;20469;-45
2021/12/27 00:11:57;;;;;;;11.95;5.30;;;;;;;;;;6207792;23;20008;-45
2021/12/27 00:14:22;;;;;;;8.85;3.95;;;;;;;;;;6206973;23;20032;-46
2021/12/27 00:16:48;;;;;;;9.07;4.38;;;;;;;;;;6207672;23;20011;-46
2021/12/27 00:19:13;;;;;;;8.60;3.72;;;;;;;;;;6207481;23;20024;-45
2021/12/27 00:21:38;;;;;;;10.13;4.30;;;;;;;;;;6207779;23;20514;-45
2021/12/27 00:24:04;;;;;;;5.97;4.05;;;;;;;;;;6207711;23;20005;-45
2021/12/27 00:26:29;;;;;;;9.70;5.10;;;;;;;;;;6207108;23;20090;-44
2021/12/27 00:28:54;;;;;;;7.00;4.18;;;;;;;;;;6207608;23;20016;-46
2021/12/27 00:31:20;;;;;;;7.07;4.30;;;;;;;;;;6207243;23;20005;-44
2021/12/27 00:33:45;;;;;;;6.43;4.40;;;;;;;;;;6207771;23;20025;-44
2021/12/27 00:36:10;;;;;;;6.22;4.15;;;;;;;;;;6207728;23;20036;-44
2021/12/27 00:38:35;;;;;;;6.05;4.03;;;;;;;;;;6207179;23;20016;-45
2021/12/27 00:41:01;;;;;;;8.65;3.80;;;;;;;;;;6207324;23;20035;-45
2021/12/27 00:43:26;;;;;;;7.22;4.68;;;;;;;;;;6205540;23;20012;-45
2021/12/27 00:45:51;;;;;;;8.45;5.10;;;;;;;;;;6207778;23;20008;-46
2021/12/27 00:48:17;;;;;;;8.55;4.70;;;;;;;;;;6207323;23;20088;-45
2021/12/27 00:50:43;;;;;;;8.77;3.90;;;;;;;;;;6207114;23;20025;-45
2021/12/27 00:53:08;;;;;;;9.05;4.32;;;;;;;;;;6207873;23;20636;-44
2021/12/27 00:55:33;;;;;;;8.25;4.68;;;;;;;;;;6206897;23;20831;-45
2021/12/27 00:57:59;;;;;;;7.78;4.30;;;;;;;;;;6207514;23;20460;-45
2021/12/27 01:00:27;;;;;;;7.07;3.95;;;;;;;;;;6207028;23;20833;-46
2021/12/27 01:02:53;;;;;;;16.33;6.40;;;;;;;;;;6207619;23;20012;-46
2021/12/27 01:05:19;;;;;;;9.50;5.03;;;;;;;;;;6206380;23;20023;-47
2021/12/27 01:07:44;;;;;;;10.15;4.55;;;;;;;;;;6207459;23;20005;-45
2021/12/27 01:12:49;;;;;;;15.18;6.18;;;;;;;;;;6207183;23;20008;-45
2021/12/27 01:17:42;;;;;;;13.05;7.07;;;;;;;;;;6207204;23;20028;-47
2021/12/27 01:20:09;;;;;;;13.45;6.50;;;;;;;;;;6207681;23;20583;-45
2021/12/27 01:22:34;;;;;;;15.77;6.78;;;;;;;;;;6206063;23;20016;-45
2021/12/27 01:25:00;;;;;;;18.00;7.38;;;;;;;;;;6207313;23;20013;-44
2021/12/27 01:27:25;;;;;;;16.55;7.22;;;;;;;;;;6206862;23;20067;-44
2021/12/27 01:29:50;;;;;;;15.68;7.03;;;;;;;;;;6207355;23;20001;-44
2021/12/27 01:32:16;;;;;;;13.10;6.68;;;;;;;;;;6206822;23;20043;-45
2021/12/27 01:34:41;;;;;;;14.02;7.32;;;;;;;;;;6207452;23;20019;-45
2021/12/27 01:37:07;;;;;;;22.95;8.32;;;;;;;;;;6207300;23;20012;-45
2021/12/27 01:39:32;;;;;;;17.55;7.32;;;;;;;;;;6206809;23;20052;-45
2021/12/27 01:41:57;;;;;;;21.80;6.93;;;;;;;;;;6207506;23;20017;-44
2021/12/27 01:44:23;;;;;;;14.32;7.38;;;;;;;;;;6206421;23;20035;-47
2021/12/27 01:46:48;;;;;;;19.80;8.73;;;;;;;;;;6207403;23;20019;-46
2021/12/27 01:49:13;;;;;;;20.33;7.43;;;;;;;;;;6206339;23;20066;-48
2021/12/27 01:51:40;;;;;;;22.23;10.10;;;;;;;;;;6207363;23;20020;-46
2021/12/27 01:54:06;;;;;;;16.23;7.38;;;;;;;;;;6206980;23;20016;-46
2021/12/27 01:56:31;;;;;;;19.85;7.78;;;;;;;;;;6207133;23;20390;-46
2021/12/27 01:58:57;;;;;;;25.75;8.15;;;;;;;;;;6206881;23;20020;-45
2021/12/27 02:01:23;;;;;;;16.95;7.07;;;;;;;;;;6206759;23;19997;-48
2021/12/27 02:03:50;;;;;;;21.00;7.57;;;;;;;;;;6207098;23;20023;-48
2021/12/27 02:06:15;;;;;;;18.90;7.75;;;;;;;;;;6206446;23;20063;-46
2021/12/27 02:08:42;;;;;;;20.40;7.45;;;;;;;;;;6207280;23;20020;-46
2021/12/27 02:11:08;;;;;;;16.48;6.80;;;;;;;;;;6207341;23;20532;-45
2021/12/27 02:13:33;;;;;;;14.05;6.50;;;;;;;;;;6208029;23;20028;-46
2021/12/27 02:15:59;;;;;;;20.88;7.82;;;;;;;;;;6208732;23;20023;-44
2021/12/27 02:18:24;;;;;;;15.65;6.20;;;;;;;;;;6208391;23;20095;-45
2021/12/27 02:20:49;;;;;;;19.83;7.95;;;;;;;;;;6208861;23;20008;-44
2021/12/27 02:23:16;;;;;;;21.85;7.43;;;;;;;;;;6208897;23;20017;-47
2021/12/27 02:25:42;;;;;;;18.40;7.75;;;;;;;;;;6208642;23;20124;-44
2021/12/27 02:28:09;;;;;;;17.67;9.48;;;;;;;;;;6209264;23;20009;-45
2021/12/27 02:30:34;;;;;;;19.92;7.88;;;;;;;;;;6208392;23;20024;-44
2021/12/27 02:33:03;;;;;;;19.98;8.68;;;;;;;;;;6208965;23;20009;-45
2021/12/27 02:35:30;;;;;;;18.77;7.72;;;;;;;;;;6207879;23;20074;-45
2021/12/27 02:37:55;;;;;;;20.50;8.95;;;;;;;;;;6208466;23;20100;-44
2021/12/27 02:40:22;;;;;;;22.20;8.27;;;;;;;;;;6208337;23;20027;-46
2021/12/27 02:42:55;;;;;;;21.63;8.68;;;;;;;;;;6208420;23;20005;-44
2021/12/27 02:45:21;;;;;;;24.45;7.97;;;;;;;;;;6208221;23;20027;-45
2021/12/27 02:47:46;;;;;;;19.67;8.05;;;;;;;;;;6207820;23;20349;-47
2021/12/27 02:50:12;;;;;;;46.50;9.40;;;;;;;;;;6208304;23;20025;-47
2021/12/27 02:52:37;;;;;;;27.88;8.20;;;;;;;;;;6207752;23;20453;-44
2021/12/27 02:55:02;;;;;;;27.17;9.25;;;;;;;;;;6207505;23;20033;-48
2021/12/27 02:57:27;;;;;;;23.08;8.38;;;;;;;;;;6207968;23;20078;-44
2021/12/27 02:59:57;;;;;;;19.02;7.80;;;;;;;;;;6208783;23;20040;-45
2021/12/27 03:02:22;;;;;;;30.52;9.07;;;;;;;;;;6207754;23;20112;-45
2021/12/27 03:04:47;;;;;;;31.75;8.50;;;;;;;;;;6206208;23;20033;-45
2021/12/27 03:07:12;;;;;;;31.60;9.32;;;;;;;;;;6208151;23;20016;-44
2021/12/27 03:09:38;;;;;;;29.00;10.30;;;;;;;;;;6207957;23;20505;-45
2021/12/27 03:12:04;;;;;;;27.45;9.18;;;;;;;;;;6208267;23;20448;-44
2021/12/27 03:14:29;;;;;;;30.88;8.95;;;;;;;;;;6207825;23;20012;-45
2021/12/27 03:16:54;;;;;;;25.23;9.05;;;;;;;;;;6208519;23;20005;-45
2021/12/27 03:19:19;;;;;;;30.88;9.50;;;;;;;;;;6207807;23;20025;-45
2021/12/27 03:21:45;;;;;;;26.60;9.32;;;;;;;;;;6208567;23;20009;-45
2021/12/27 03:24:10;;;;;;;23.98;9.50;;;;;;;;;;6207662;23;20047;-45
2021/12/27 03:26:35;;;;;;;17.70;8.13;;;;;;;;;;6207645;23;20009;-44
2021/12/27 03:29:00;;;;;;;22.15;8.45;;;;;;;;;;6207821;23;20345;-45
2021/12/27 03:31:26;;;;;;;21.33;9.32;;;;;;;;;;6207921;23;20047;-45
2021/12/27 03:33:51;;;;;;;22.63;9.70;;;;;;;;;;6208059;23;20024;-46
2021/12/27 03:36:16;;;;;;;20.75;9.68;;;;;;;;;;6207607;23;20004;-47
2021/12/27 03:38:44;;;;;;;23.73;9.90;;;;;;;;;;6208086;23;20322;-44
2021/12/27 03:41:14;;;;;;;30.92;10.88;;;;;;;;;;6207946;23;20012;-46
2021/12/27 03:43:39;;;;;;;;;;;;;;;;;;6208582;23;20132;-45
2021/12/27 03:46:04;;;;;;;18.33;8.25;;;;;;;;;;6208176;23;19935;-45
2021/12/27 03:48:30;;;;;;;25.27;9.80;;;;;;;;;;6207787;23;20024;-44
2021/12/27 03:50:55;;;;;;;28.77;10.20;;;;;;;;;;6207491;23;20500;-48
2021/12/27 03:53:20;;;;;;;29.05;11.02;;;;;;;;;;6207806;23;20043;-44
2021/12/27 03:55:46;;;;;;;30.38;10.55;;;;;;;;;;6208086;23;20685;-46
2021/12/27 03:58:23;;;;;;;29.92;9.88;;;;;;;;;;6208285;23;20104;-46
2021/12/27 04:03:16;;;;;;;20.48;8.90;;;;;;;;;;6208071;23;20019;-44
2021/12/27 04:05:41;;;;;;;24.02;9.35;;;;;;;;;;6206776;23;20039;-45
2021/12/27 04:08:09;;;;;;;23.65;10.50;;;;;;;;;;6207809;23;20005;-43
2021/12/27 04:10:38;;;;;;;23.00;9.88;;;;;;;;;;6207253;23;20103;-44
2021/12/27 04:13:04;;;;;;;28.10;9.73;;;;;;;;;;6207994;23;20023;-44
2021/12/27 04:15:30;;;;;;;23.67;10.15;;;;;;;;;;6207094;23;20413;-44
2021/12/27 04:17:55;;;;;;;29.38;9.55;;;;;;;;;;6207830;23;20025;-45
2021/12/27 04:20:21;;;;;;;24.60;10.82;;;;;;;;;;6207779;23;20024;-47
2021/12/27 04:22:46;;;;;;;23.77;10.38;;;;;;;;;;6206318;23;20337;-49
2021/12/27 04:25:11;;;;;;;26.75;12.65;;;;;;;;;;6208063;23;20012;-45
2021/12/27 04:27:37;;;;;;;30.27;11.52;;;;;;;;;;6206678;23;20013;-47
2021/12/27 04:30:02;;;;;;;22.92;9.88;;;;;;;;;;6208087;23;20007;-47
2021/12/27 04:32:28;;;;;;;23.27;9.45;;;;;;;;;;6207353;23;20092;-45
2021/12/27 04:34:53;;;;;;;28.35;10.40;;;;;;;;;;6207760;23;20063;-47
2021/12/27 04:37:18;;;;;;;25.90;11.07;;;;;;;;;;6206794;23;20071;-47
2021/12/27 04:39:43;;;;;;;27.50;11.13;;;;;;;;;;6207733;23;20020;-46
2021/12/27 04:42:09;;;;;;;26.10;11.00;;;;;;;;;;6207470;23;20005;-46
2021/12/27 04:44:34;;;;;;;26.90;11.52;;;;;;;;;;6207449;23;20021;-44
2021/12/27 04:47:00;;;;;;;20.13;9.93;;;;;;;;;;6207473;23;20012;-44
2021/12/27 04:49:25;;;;;;;30.20;9.43;;;;;;;;;;6206820;23;20009;-44
2021/12/27 04:51:50;;;;;;;16.42;8.73;;;;;;;;;;6207658;23;20021;-44
2021/12/27 04:54:16;;;;;;;21.13;9.13;;;;;;;;;;6207384;23;20411;-44
2021/12/27 04:56:41;;;;;;;25.08;10.32;;;;;;;;;;6207200;23;20036;-46
2021/12/27 04:59:06;;;;;;;16.60;8.40;;;;;;;;;;6207749;23;20028;-44
2021/12/27 05:01:32;;;;;;;17.88;8.18;;;;;;;;;;6206780;23;20040;-44
2021/12/27 05:03:57;;;;;;;20.98;8.43;;;;;;;;;;6207735;23;20491;-44
2021/12/27 05:06:22;;;;;;;18.85;9.07;;;;;;;;;;6206392;23;20015;-45
2021/12/27 05:08:49;;;;;;;22.20;9.02;;;;;;;;;;6207822;23;20035;-47
2021/12/27 05:11:15;;;;;;;21.90;9.52;;;;;;;;;;6206922;23;20008;-44
2021/12/27 05:13:40;;;;;;;18.00;8.57;;;;;;;;;;6207390;23;20063;-44
2021/12/27 05:16:06;;;;;;;18.15;10.10;;;;;;;;;;6207566;23;20081;-45
2021/12/27 05:18:31;;;;;;;29.85;10.88;;;;;;;;;;6206525;23;20024;-45
2021/12/27 05:20:56;;;;;;;22.35;9.20;;;;;;;;;;6207529;23;20012;-45
2021/12/27 05:23:22;;;;;;;17.20;8.45;;;;;;;;;;6205280;23;20009;-44
2021/12/27 05:25:47;;;;;;;22.90;9.73;;;;;;;;;;6207901;23;20327;-45
2021/12/27 05:28:13;;;;;;;15.32;7.20;;;;;;;;;;6206890;23;20475;-45
2021/12/27 05:30:38;;;;;;;15.23;7.28;;;;;;;;;;6207380;23;20365;-48
2021/12/27 05:33:03;;;;;;;15.25;7.05;;;;;;;;;;6207093;23;20437;-45
2021/12/27 05:35:29;;;;;;;18.35;8.48;;;;;;;;;;6207059;23;20012;-46
2021/12/27 05:37:55;;;;;;;19.65;8.90;;;;;;;;;;6206743;23;20024;-44
2021/12/27 05:40:22;;;;;;;19.08;7.85;;;;;;;;;;6207087;23;20489;-45
2021/12/27 05:42:49;;;;;;;17.00;8.48;;;;;;;;;;6207256;23;20016;-46
2021/12/27 05:45:15;;;;;;;19.45;8.52;;;;;;;;;;6206928;23;20015;-45
2021/12/27 05:47:40;;;;;;;23.50;9.45;;;;;;;;;;6207646;23;20021;-45
2021/12/27 05:50:06;;;;;;;18.42;9.02;;;;;;;;;;6208969;23;20083;-46
2021/12/27 05:52:31;;;;;;;20.17;8.35;;;;;;;;;;6208581;23;20020;-48
2021/12/27 05:54:56;;;;;;;24.80;9.85;;;;;;;;;;6209005;23;20893;-45
2021/12/27 05:57:21;;;;;;;17.85;8.02;;;;;;;;;;6208514;23;20066;-46
2021/12/27 05:59:47;;;;;;;18.35;9.13;;;;;;;;;;6207738;23;20449;-45
2021/12/27 06:02:12;;;;;;;19.35;8.88;;;;;;;;;;6208421;23;20015;-43
2021/12/27 06:04:37;;;;;;;23.58;8.32;;;;;;;;;;6209393;23;20004;-44
2021/12/27 06:07:03;;;;;;;16.40;6.82;;;;;;;;;;6209253;23;20015;-44
2021/12/27 06:09:28;;;;;;;12.27;6.85;;;;;;;;;;6208924;23;20107;-45
2021/12/27 06:11:53;;;;;;;19.02;6.00;;;;;;;;;;6209039;23;20481;-44
2021/12/27 06:14:19;;;;;;;13.10;6.72;;;;;;;;;;6208654;23;20024;-45
2021/12/27 06:16:44;;;;;;;13.35;5.35;;;;;;;;;;6208928;23;20009;-47
2021/12/27 06:19:09;;;;;;;14.70;5.93;;;;;;;;;;6208747;23;20095;-44
2021/12/27 06:21:36;;;;;;;12.77;5.05;;;;;;;;;;6208599;23;20012;-45
2021/12/27 06:24:02;;;;;;;10.48;4.07;;;;;;;;;;6209022;23;20013;-46
2021/12/27 06:26:27;;;;;;;11.20;4.97;;;;;;;;;;6208286;23;20074;-44
2021/12/27 06:28:52;;;;;;;11.60;4.00;;;;;;;;;;6209096;23;20041;-48
2021/12/27 06:31:18;;;;;;;14.90;4.75;;;;;;;;;;6208172;23;20017;-44
2021/12/27 06:33:43;;;;;;;6.55;3.78;;;;;;;;;;6208643;23;20005;-45
2021/12/27 06:36:08;;;;;;;17.02;4.13;;;;;;;;;;6208832;23;20396;-46
2021/12/27 06:38:34;;;;;;;11.45;4.15;;;;;;;;;;6208550;23;20341;-45
2021/12/27 06:41:00;;;;;;;12.10;6.13;;;;;;;;;;6208681;23;20551;-45
2021/12/27 06:43:26;;;;;;;9.05;4.40;;;;;;;;;;6208498;23;20009;-45
2021/12/27 06:45:51;;;;;;;11.52;4.68;;;;;;;;;;6208604;23;20344;-45
2021/12/27 06:48:16;;;;;;;8.82;4.22;;;;;;;;;;6207997;23;20709;-46
2021/12/27 06:50:42;;;;;;;15.32;4.25;;;;;;;;;;6207866;23;20409;-46
2021/12/27 06:53:07;;;;;;;7.38;4.40;;;;;;;;;;6208899;23;20456;-45
2021/12/27 06:55:33;;;;;;;17.35;5.55;;;;;;;;;;6207598;23;20058;-46
2021/12/27 06:57:58;;;;;;;9.73;5.18;;;;;;;;;;6208271;23;20016;-46
2021/12/27 07:00:23;;;;;;;16.13;5.57;;;;;;;;;;6208078;23;20024;-45
2021/12/27 07:02:48;;;;;;;13.45;5.22;;;;;;;;;;6208660;23;20005;-47
2021/12/27 07:05:14;;;;;;;8.65;5.53;;;;;;;;;;6207740;23;20012;-45
2021/12/27 07:07:39;;;;;;;14.07;5.43;;;;;;;;;;6208679;23;20093;-46
2021/12/27 07:10:06;;;;;;;6.72;4.35;;;;;;;;;;6208451;23;20016;-47
2021/12/27 07:12:31;;;;;;;10.88;6.13;;;;;;;;;;6207941;23;20024;-44
2021/12/27 07:14:56;;;;;;;10.55;5.68;;;;;;;;;;6208778;23;20004;-46
2021/12/27 07:17:21;;;;;;;8.70;5.13;;;;;;;;;;6207028;23;20388;-44
2021/12/27 07:19:47;;;;;;;9.48;5.60;;;;;;;;;;6208554;23;20021;-44
2021/12/27 07:22:12;;;;;;;11.43;5.57;;;;;;;;;;6207668;23;20005;-44
2021/12/27 07:24:37;;;;;;;8.70;4.97;;;;;;;;;;6208450;23;20009;-45
2021/12/27 07:27:03;;;;;;;18.05;5.90;;;;;;;;;;6207882;23;20008;-45
2021/12/27 07:29:28;;;;;;;11.98;6.82;;;;;;;;;;6207836;23;20353;-45
2021/12/27 07:31:53;;;;;;;12.18;6.20;;;;;;;;;;6208412;23;20008;-45
2021/12/27 07:34:19;;;;;;;10.73;5.43;;;;;;;;;;6207543;23;20076;-45
2021/12/27 07:36:45;;;;;;;11.38;6.35;;;;;;;;;;6208614;23;20437;-44
2021/12/27 07:39:11;;;;;;;14.60;6.22;;;;;;;;;;6208095;23;20043;-45
2021/12/27 07:41:36;;;;;;;12.10;6.00;;;;;;;;;;6207570;23;20290;-45
2021/12/27 07:44:03;;;;;;;12.45;6.20;;;;;;;;;;6208477;23;20471;-45
2021/12/27 07:46:28;;;;;;;14.05;6.10;;;;;;;;;;6207487;23;20014;-45
2021/12/27 07:48:53;;;;;;;12.88;7.47;;;;;;;;;;6208281;23;20015;-46
2021/12/27 07:51:19;;;;;;;10.27;5.97;;;;;;;;;;6207210;23;20023;-49
2021/12/27 07:53:44;;;;;;;12.27;5.90;;;;;;;;;;6208118;23;20019;-44
2021/12/27 07:56:09;;;;;;;13.20;5.45;;;;;;;;;;6208176;23;20067;-45
2021/12/27 07:58:35;;;;;;;13.25;6.18;;;;;;;;;;6207141;23;20758;-45
2021/12/27 08:01:00;;;;;;;10.18;5.65;;;;;;;;;;6208132;23;20019;-46
2021/12/27 08:03:25;;;;;;;8.40;5.63;;;;;;;;;;6207652;23;20013;-45
2021/12/27 08:05:51;;;;;;;7.80;6.47;;;;;;;;;;6207912;23;20012;-46
2021/12/27 08:08:16;;;;;;;8.73;6.47;;;;;;;;;;6207504;23;20031;-45
2021/12/27 08:10:42;;;;;;;11.43;6.78;;;;;;;;;;6208121;23;20004;-47
2021/12/27 08:13:07;;;;;;;9.88;5.35;;;;;;;;;;6207685;23;20036;-46
2021/12/27 08:15:32;;;;;;;17.30;6.03;;;;;;;;;;6207029;23;20020;-45
2021/12/27 08:17:58;;;;;;;13.10;6.07;;;;;;;;;;6207472;23;20120;-44
2021/12/27 08:20:23;;;;;;;10.40;5.82;;;;;;;;;;6207426;23;20032;-46
2021/12/27 08:22:49;;;;;;;9.55;6.18;;;;;;;;;;6208469;23;20036;-45
2021/12/27 08:25:14;;;;;;;15.25;6.45;;;;;;;;;;6207152;23;20749;-45
2021/12/27 08:27:40;;;;;;;16.98;6.70;;;;;;;;;;6207651;23;20040;-46
2021/12/27 08:30:06;;;;;;;11.70;5.72;;;;;;;;;;6208099;23;20341;-47
2021/12/27 08:32:32;;;;;;;9.82;6.55;;;;;;;;;;6207201;23;20438;-46
2021/12/27 08:35:01;;;;;;;14.60;6.88;;;;;;;;;;6207586;23;20009;-45
2021/12/27 08:37:26;;;;;;;10.95;6.47;;;;;;;;;;6207507;23;20013;-47
2021/12/27 08:39:51;;;;;;;9.80;6.35;;;;;;;;;;6207456;23;20023;-49
2021/12/27 08:42:16;;;;;;;11.57;6.25;;;;;;;;;;6207298;23;20043;-45
2021/12/27 08:44:41;;;;;;;8.40;6.00;;;;;;;;;;6207342;23;20008;-45
2021/12/27 08:47:08;;;;;;;11.27;6.03;;;;;;;;;;6207777;23;20011;-44
2021/12/27 08:49:33;;;;;;;8.18;5.82;;;;;;;;;;6206826;23;20009;-44
2021/12/27 08:51:59;;;;;;;8.55;6.35;;;;;;;;;;6207865;23;20023;-46
2021/12/27 08:54:24;;;;;;;12.18;6.00;;;;;;;;;;6207157;23;20095;-47
2021/12/27 08:56:49;;;;;;;7.82;4.63;;;;;;;;;;6207361;23;20011;-44
2021/12/27 08:59:14;;;;;;;12.02;5.93;;;;;;;;;;6206799;23;20087;-47
2021/12/27 09:01:40;;;;;;;8.25;6.05;;;;;;;;;;6207830;23;20008;-45
2021/12/27 09:04:07;;;;;;;8.40;5.72;;;;;;;;;;6207567;23;20008;-44
2021/12/27 09:06:34;;;;;;;8.15;5.35;;;;;;;;;;6206927;23;20091;-45
2021/12/27 09:08:59;;;;;;;8.48;6.07;;;;;;;;;;6207721;23;20012;-44
2021/12/27 09:11:24;;;;;;;11.43;5.20;;;;;;;;;;6207066;23;20009;-44
2021/12/27 09:13:50;;;;;;;8.70;5.53;;;;;;;;;;6207584;23;20005;-44
2021/12/27 09:16:15;;;;;;;8.95;5.38;;;;;;;;;;6206945;23;20049;-44
2021/12/27 09:18:40;;;;;;;8.73;5.68;;;;;;;;;;6207074;23;20016;-46
2021/12/27 09:21:07;;;;;;;8.95;5.28;;;;;;;;;;6207745;23;20009;-45
2021/12/27 09:23:32;;;;;;;13.73;6.15;;;;;;;;;;6208102;23;20411;-45
2021/12/27 09:25:58;;;;;;;7.53;4.78;;;;;;;;;;6207659;23;20015;-45
2021/12/27 09:28:23;;;;;;;6.80;4.93;;;;;;;;;;6209116;23;20461;-46
2021/12/27 09:30:48;;;;;;;7.55;5.72;;;;;;;;;;6209518;23;20333;-48
2021/12/27 09:33:14;;;;;;;7.18;5.07;;;;;;;;;;6209318;23;20778;-43
2021/12/27 09:35:39;;;;;;;9.27;6.03;;;;;;;;;;6209757;23;20001;-45
2021/12/27 09:38:04;;;;;;;10.20;5.60;;;;;;;;;;6209220;23;20839;-44
2021/12/27 09:40:30;;;;;;;8.43;5.00;;;;;;;;;;6209112;23;20026;-46
2021/12/27 09:42:55;;;;;;;10.00;5.15;;;;;;;;;;6208759;23;20412;-44
2021/12/27 09:45:21;;;;;;;8.45;5.28;;;;;;;;;;6209413;23;20009;-44
2021/12/27 09:47:49;;;;;;;11.18;5.22;;;;;;;;;;6208951;23;20063;-44
2021/12/27 09:50:18;;;;;;;7.85;5.00;;;;;;;;;;6208624;23;20020;-44
2021/12/27 09:52:43;;;;;;;6.90;4.80;;;;;;;;;;6209071;23;20012;-44
2021/12/27 09:55:09;;;;;;;5.45;4.15;;;;;;;;;;6209352;23;20074;-46
2021/12/27 09:57:35;;;;;;;7.53;4.03;;;;;;;;;;6207946;23;20008;-44
2021/12/27 10:00:00;;;;;;;6.88;4.57;;;;;;;;;;6209588;23;20020;-47
2021/12/27 10:02:26;;;;;;;5.47;4.20;;;;;;;;;;6208563;23;20087;-44
2021/12/27 10:04:51;;;;;;;4.95;3.85;;;;;;;;;;6209620;23;20096;-45
2021/12/27 10:07:23;;;;;;;6.88;4.10;;;;;;;;;;6208144;23;20000;-44
2021/12/27 10:09:52;;;;;;;6.68;4.20;;;;;;;;;;6209454;23;20024;-44
2021/12/27 10:12:18;;;;;;;;;;;;;;;;;;6208872;23;20403;-44
2021/12/27 10:14:43;;;;;;;3.92;2.97;;;;;;;;;;6209505;23;20285;-44
2021/12/27 10:17:10;;;;;;;3.55;3.05;;;;;;;;;;6208534;23;20039;-45
2021/12/27 10:19:36;;;;;;;3.55;3.13;;;;;;;;;;6208807;23;20027;-45
2021/12/27 10:22:01;;;;;;;4.20;2.83;;;;;;;;;;6208778;23;20013;-44
2021/12/27 10:24:28;;;;;;;2.90;2.60;;;;;;;;;;6208630;23;20016;-44
2021/12/27 10:26:54;;;;;;;2.78;2.42;;;;;;;;;;6208951;23;20031;-43
2021/12/27 10:29:29;;;;;;;2.35;2.15;;;;;;;;;;6208547;23;20425;-45
2021/12/27 10:32:16;;;;;;;5.28;2.42;;;;;;;;;;6206769;23;20009;-44
2021/12/27 10:34:46;;;;;;;2.97;1.90;;;;;;;;;;6208782;23;20052;-44
2021/12/27 10:37:11;;;;;;;;;;;;;;;;;;6209141;23;20015;-45
2021/12/27 10:39:45;;;;;;;3.23;1.77;;;;;;;;;;6208118;23;19987;-45
2021/12/27 10:42:12;;;;;;;4.63;2.38;;;;;;;;;;6208728;23;20265;-44
2021/12/27 10:44:37;;;;;;;4.68;2.00;;;;;;;;;;6208262;23;20008;-43
2021/12/27 10:47:04;;;;;;;1.83;1.15;;;;;;;;;;6209022;23;20317;-44
2021/12/27 10:49:45;;;;;;;1.60;1.40;;;;;;;;;;6208012;23;20127;-44
2021/12/27 10:52:11;;;;;;;1.70;1.30;;;;;;;;;;6208631;23;20063;-46
2021/12/27 10:54:37;;;;;;;1.58;0.90;;;;;;;;;;6208341;23;20001;-44
2021/12/27 10:57:03;;;;;;;1.90;1.00;;;;;;;;;;6231955;23;20106;-43
2021/12/27 10:59:28;;;;;;;1.55;1.35;;;;;;;;;;6208315;23;20550;-44
2021/12/27 11:01:54;;;;;;;3.85;1.88;;;;;;;;;;6208758;23;20016;-46
2021/12/27 11:04:19;;;;;;;2.50;1.10;;;;;;;;;;6207883;23;20346;-44
2021/12/27 11:06:45;;;;;;;1.25;0.80;;;;;;;;;;6208092;23;20515;-43
2021/12/27 11:09:14;;;;;;;2.00;1.33;;;;;;;;;;6208271;23;20017;-45
2021/12/27 11:11:39;;;;;;;1.17;0.77;;;;;;;;;;6208042;23;20008;-45
2021/12/27 11:14:04;;;;;;;1.02;0.90;;;;;;;;;;6208534;23;20012;-43
2021/12/27 11:16:30;;;;;;;2.28;0.98;;;;;;;;;;6208319;23;20072;-44
2021/12/27 11:18:55;;;;;;;2.58;1.00;;;;;;;;;;6207882;23;20016;-44
2021/12/27 11:21:42;;;;;;;3.22;0.85;;;;;;;;;;6207846;23;20009;-43
2021/12/27 11:24:08;;;;;;;1.00;0.90;;;;;;;;;;6208459;23;20082;-44
2021/12/27 11:26:34;;;;;;;2.60;0.70;;;;;;;;;;6207726;23;20005;-46
2021/12/27 11:29:10;;;;;;;0.63;0.60;;;;;;;;;;6206585;23;20001;-44
2021/12/27 11:31:37;;;;;;;2.58;0.47;;;;;;;;;;6207688;23;20009;-45
2021/12/27 11:34:06;;;;;;;1.58;0.40;;;;;;;;;;6208380;23;20016;-44
2021/12/27 11:36:32;;;;;;;0.60;0.40;;;;;;;;;;6207537;23;20022;-44
2021/12/27 11:38:58;;;;;;;0.95;0.30;;;;;;;;;;6208078;23;20020;-51
2021/12/27 11:41:26;;;;;;;0.50;0.47;;;;;;;;;;6207816;23;20005;-45
2021/12/27 11:43:56;;;;;;;0.40;0.40;;;;;;;;;;6208401;23;20016;-44
2021/12/27 11:46:22;;;;;;;0.65;0.30;;;;;;;;;;6207137;23;20009;-45
2021/12/27 11:48:51;;;;;;;1.75;0.20;;;;;;;;;;6208353;23;20044;-45
2021/12/27 11:51:27;;;;;;;0.85;0.50;;;;;;;;;;6207482;23;20017;-43
2021/12/27 11:53:55;;;;;;;1.33;0.43;;;;;;;;;;6208223;23;20024;-45
2021/12/27 11:56:44;;;;;;;1.08;0.50;;;;;;;;;;6207694;23;20503;-44
2021/12/27 11:59:24;;;;;;;0.82;0.40;;;;;;;;;;6207709;23;20024;-44
2021/12/27 12:01:50;;;;;;;3.38;0.38;;;;;;;;;;6207493;23;20128;-46
2021/12/27 12:04:36;;;;;;;0.30;0.30;;;;;;;;;;6205989;23;20009;-47
2021/12/27 12:07:01;;;;;;;0.40;0.40;;;;;;;;;;6192189;23;20015;-47
2021/12/27 12:09:27;;;;;;;0.38;0.28;;;;;;;;;;6207419;23;20044;-45
2021/12/27 12:12:03;;;;;;;0.68;0.40;;;;;;;;;;6208179;23;20012;-45
2021/12/27 12:14:33;;;;;;;0.73;0.25;;;;;;;;;;6207478;23;20016;-45
2021/12/27 12:17:00;;;;;;;0.90;0.70;;;;;;;;;;6207866;23;20005;-44
2021/12/27 12:19:45;;;;;;;0.73;0.47;;;;;;;;;;6207490;23;20035;-45
2021/12/27 12:22:29;;;;;;;0.30;0.30;;;;;;;;;;6207371;23;20016;-47
2021/12/27 12:25:11;;;;;;;0.77;0.50;;;;;;;;;;6206832;23;20005;-44
2021/12/27 12:27:37;;;;;;;0.63;0.40;;;;;;;;;;6207403;23;20027;-45
2021/12/27 12:30:02;;;;;;;0.65;0.30;;;;;;;;;;6207692;23;20376;-43
2021/12/27 12:32:27;;;;;;;0.45;0.35;;;;;;;;;;6207332;23;20035;-46
2021/12/27 12:34:53;;;;;;;0.28;0.28;;;;;;;;;;6207618;23;20009;-44
2021/12/27 12:37:19;;;;;;;0.75;0.47;;;;;;;;;;6206978;23;20074;-47
2021/12/27 12:39:46;;;;;;;0.80;0.45;;;;;;;;;;6207146;23;20023;-44
2021/12/27 12:42:12;;;;;;;0.73;0.40;;;;;;;;;;6205151;23;20013;-44
2021/12/27 12:44:52;;;;;;;0.85;0.63;;;;;;;;;;6207258;23;20012;-44
2021/12/27 12:47:18;;;;;;;4.78;0.68;;;;;;;;;;6207096;23;20015;-44
2021/12/27 12:49:44;;;;;;;3.38;0.68;;;;;;;;;;6207141;23;20016;-43
2021/12/27 12:52:09;;;;;;;1.17;0.60;;;;;;;;;;6207324;23;20019;-44
2021/12/27 12:54:36;;;;;;;2.97;0.70;;;;;;;;;;6207077;23;20011;-44
2021/12/27 12:57:07;;;;;;;2.67;1.23;;;;;;;;;;6206928;23;20024;-46
2021/12/27 12:59:32;;;;;;;5.43;1.27;;;;;;;;;;6207049;23;20021;-44
2021/12/27 13:02:03;;;;;;;1.88;1.25;;;;;;;;;;6207583;23;20130;-44
2021/12/27 13:04:44;;;;;;;7.45;2.42;;;;;;;;;;6206686;23;20009;-45
2021/12/27 13:07:10;;;;;;;7.75;2.30;;;;;;;;;;6207205;23;20063;-44
2021/12/27 13:09:43;;;;;;;9.27;2.50;;;;;;;;;;6207294;23;20035;-44
2021/12/27 13:12:09;;;;;;;8.65;3.75;;;;;;;;;;6207248;23;20008;-44
2021/12/27 13:14:34;;;;;;;9.45;3.80;;;;;;;;;;6206785;23;20088;-46
2021/12/27 13:17:09;;;;;;;21.67;4.80;;;;;;;;;;6207464;23;20456;-45
2021/12/27 13:19:55;;;;;;;16.48;5.50;;;;;;;;;;6207204;23;20460;-47
2021/12/27 13:22:38;;;;;;;27.50;6.57;;;;;;;;;;6206497;23;20016;-44
2021/12/27 13:25:04;;;;;;;25.17;6.72;;;;;;;;;;6207166;23;20005;-44
2021/12/27 13:27:30;;;;;;;28.27;6.03;;;;;;;;;;6206764;23;20023;-45
2021/12/27 13:30:06;;;;;;;22.08;7.75;;;;;;;;;;6207294;23;20092;-45
2021/12/27 13:32:32;;;;;;;22.23;6.50;;;;;;;;;;6206829;23;20019;-44
2021/12/27 13:34:57;;;;;;;21.90;7.05;;;;;;;;;;6207050;23;20083;-46
2021/12/27 13:37:22;;;;;;;35.38;8.18;;;;;;;;;;6206939;23;20024;-47
2021/12/27 13:39:47;;;;;;;25.45;7.70;;;;;;;;;;6206958;23;20031;-44
2021/12/27 13:42:15;;;;;;;37.30;10.20;;;;;;;;;;6206982;23;20013;-45
2021/12/27 13:44:41;;;;;;;46.65;12.40;;;;;;;;;;6205313;23;20013;-45
2021/12/27 13:47:08;;;;;;;36.60;8.65;;;;;;;;;;6207449;23;20488;-44
2021/12/27 13:49:34;;;;;;;37.90;9.95;;;;;;;;;;6206222;23;20020;-44
2021/12/27 13:52:04;;;;;;;44.95;10.65;;;;;;;;;;6207498;23;20361;-44
2021/12/27 13:54:29;;;;;;;;;;;;;;;;;;6207220;23;20083;-48
2021/12/27 13:56:57;;;;;;;37.22;8.80;;;;;;;;;;6207102;23;19935;-45
2021/12/27 13:59:22;;;;;;;26.92;6.55;;;;;;;;;;6207018;23;20027;-45
2021/12/27 14:01:55;;;;;;;39.55;10.15;;;;;;;;;;6207098;23;20084;-46
2021/12/27 14:04:22;;;;;;;35.53;9.85;;;;;;;;;;6207020;23;20013;-46
2021/12/27 14:06:47;;;;;;;34.15;11.80;;;;;;;;;;6207239;23;20009;-45
2021/12/27 14:09:18;;;;;;;25.40;7.63;;;;;;;;;;6207697;23;20012;-47
2021/12/27 14:11:51;;;;;;;25.08;8.32;;;;;;;;;;6209202;23;20004;-51
2021/12/27 14:14:35;;;;;;;34.50;8.55;;;;;;;;;;6208450;23;20062;-45
2021/12/27 14:17:04;;;;;;;29.25;7.85;;;;;;;;;;6209064;23;20040;-48
2021/12/27 14:19:29;;;;;;;26.80;7.93;;;;;;;;;;6208752;23;20016;-45
2021/12/27 14:22:03;;;;;;;22.65;7.57;;;;;;;;;;6209036;23;20005;-45
2021/12/27 14:24:44;;;;;;;36.90;7.72;;;;;;;;;;6208710;23;20318;-45
2021/12/27 14:27:33;;;;;;;28.63;7.43;;;;;;;;;;6208591;23;20008;-46
2021/12/27 14:29:59;;;;;;;;;;;;;;;;;;6201125;23;20009;-46
2021/12/27 14:32:24;;;;;;;36.25;9.13;;;;;;;;;;6208421;23;20011;-45
2021/12/27 14:34:52;;;;;;;29.23;8.23;;;;;;;;;;6209079;23;20040;-46
2021/12/27 14:37:18;;;;;;;28.15;8.18;;;;;;;;;;6208541;23;20016;-50
2021/12/27 14:39:44;;;;;;;26.35;8.20;;;;;;;;;;6208537;23;20020;-44
2021/12/27 14:42:10;;;;;;;26.08;8.88;;;;;;;;;;6209160;23;20013;-45